Time;durP1;ratioP1;P1;durP2;ratioP2;P2;SDS_P1;SDS_P2;PMS_P1;PMS_P2;Temp;Humidity;BMP_temperature;BMP_pressure;BME280_temperature;BME280_humidity;BME280_pressure;Samples;Min_cycle;Max_cycle;Signal;HPM_P1;HPM_P2
2022/02/11 00:04:44;;;;;;;12.77;1.50;;;;;;;4.54;82.29;101832.63;5044590;28;20091;-49
2022/02/11 00:07:03;;;;;;;7.72;1.48;;;;;;;4.50;82.35;101838.47;5046734;28;20037;-47
2022/02/11 00:09:29;;;;;;;4.88;0.90;;;;;;;4.47;82.33;101831.69;5045060;28;20046;-50
2022/02/11 00:11:56;;;;;;;3.63;1.20;;;;;;;4.50;82.36;101833.16;5045730;28;20534;-48
2022/02/11 00:14:22;;;;;;;3.90;1.45;;;;;;;4.56;82.50;101837.75;5043728;28;20156;-48
2022/02/11 00:16:47;;;;;;;5.80;1.48;;;;;;;4.58;82.48;101832.25;5043288;28;20398;-51
2022/02/11 00:19:13;;;;;;;5.20;1.13;;;;;;;4.57;82.42;101833.25;5044057;28;20036;-48
2022/02/11 00:21:39;;;;;;;2.10;0.90;;;;;;;4.53;82.21;101833.63;5046129;28;20028;-50
2022/02/11 00:24:05;;;;;;;6.13;1.38;;;;;;;4.57;82.15;101830.59;5043148;28;20126;-51
2022/02/11 00:26:35;;;;;;;5.10;1.38;;;;;;;4.58;82.29;101830.41;5044795;28;20486;-47
2022/02/11 00:32:41;;;;;;;6.70;2.22;;;;;;;4.62;82.06;101825.56;5044423;28;20067;-50
2022/02/11 00:34:43;;;;;;;5.03;1.37;;;;;;;4.63;82.09;101822.72;5033066;28;20052;-49
2022/02/11 00:37:14;;;;;;;6.63;1.80;;;;;;;4.66;81.70;101816.22;5042970;28;21811;-49
2022/02/11 01:03:59;;;;;;;6.13;1.60;;;;;;;4.46;82.02;101822.06;5043986;28;20071;-49
2022/02/11 01:06:25;;;;;;;6.45;1.83;;;;;;;4.40;82.04;101814.84;5043122;28;20025;-49
2022/02/11 01:08:52;;;;;;;5.47;1.70;;;;;;;4.41;81.94;101823.63;5042354;28;20021;-48
2022/02/11 01:11:25;;;;;;;5.60;1.40;;;;;;;4.35;81.94;101825.19;5044205;28;20032;-50
2022/02/11 01:13:51;;;;;;;4.40;1.67;;;;;;;4.30;82.34;101818.75;5039369;28;20559;-50
2022/02/11 01:16:22;;;;;;;6.85;1.40;;;;;;;4.32;82.41;101822.91;5045112;28;20029;-49
2022/02/11 01:19:00;;;;;;;5.18;1.45;;;;;;;4.24;82.43;101822.94;5042805;28;20036;-48
2022/02/11 01:21:35;;;;;;;3.67;1.40;;;;;;;4.30;82.35;101822.22;5043336;28;20110;-49
2022/02/11 01:29:56;;;;;;;5.20;1.58;;;;;;;4.22;82.29;101830.28;5041618;28;20029;-51
2022/02/11 01:35:12;;;;;;;6.55;1.52;;;;;;;4.15;82.74;101827.53;5041682;28;20029;-49
2022/02/11 01:48:45;;;;;;;6.20;1.55;;;;;;;4.27;82.41;101827.91;5043269;28;20115;-48
2022/02/11 02:59:05;;;;;;;5.32;2.40;;;;;;;4.18;81.83;101768.81;5041993;28;20055;-49
2022/02/11 03:56:56;;;;;;;4.25;1.60;;;;;;;3.97;82.03;101767.84;5036673;28;20044;-50
2022/02/11 04:55:53;;;;;;;5.43;1.77;;;;;;;3.60;82.24;101780.09;5042382;28;20035;-48
2022/02/11 05:01:04;;;;;;;6.35;2.13;;;;;;;3.56;82.02;101786.72;5042729;28;20044;-49
2022/02/11 05:03:29;;;;;;;8.68;2.15;;;;;;;3.51;82.18;101781.94;5042255;28;20067;-51
2022/02/11 05:05:55;;;;;;;3.10;1.80;;;;;;;3.50;82.12;101782.13;5041996;28;20119;-48
2022/02/11 05:08:22;;;;;;;5.50;2.00;;;;;;;3.49;82.17;101786.59;5038687;28;20086;-50
2022/02/11 05:10:49;;;;;;;4.63;1.75;;;;;;;3.49;82.10;101783.13;5041984;28;20059;-49
2022/02/11 05:13:16;;;;;;;6.53;2.00;;;;;;;3.48;82.10;101784.13;5042129;28;20032;-50
2022/02/11 05:15:42;;;;;;;8.63;1.98;;;;;;;3.49;82.07;101776.00;5042197;28;20544;-49
2022/02/11 05:18:09;;;;;;;3.65;2.13;;;;;;;3.45;82.37;101779.19;5042744;28;20459;-49
2022/02/11 05:20:35;;;;;;;8.10;2.50;;;;;;;3.45;82.27;101784.50;5040586;28;21315;-48
2022/02/11 05:23:07;;;;;;;7.00;1.98;;;;;;;3.43;81.86;101791.78;5041653;28;20531;-51
2022/02/11 05:25:40;;;;;;;10.50;2.38;;;;;;;3.41;81.86;101785.81;5039511;28;20127;-48
2022/02/11 05:28:06;;;;;;;4.30;2.35;;;;;;;3.37;82.18;101785.34;5042949;28;20481;-48
2022/02/11 05:30:32;;;;;;;7.75;1.98;;;;;;;3.29;82.17;101790.72;5041470;28;20497;-51
2022/02/11 05:33:00;;;;;;;5.85;2.65;;;;;;;3.25;82.58;101784.94;5040732;28;20080;-47
2022/02/11 05:35:26;;;;;;;12.15;2.08;;;;;;;3.24;82.49;101788.59;5039686;28;20083;-53
2022/02/11 05:37:52;;;;;;;6.28;2.45;;;;;;;3.22;82.56;101779.16;5040877;28;20421;-49
2022/02/11 05:40:18;;;;;;;8.50;2.15;;;;;;;3.20;82.68;101787.28;5039879;28;20076;-52
2022/02/11 05:42:43;;;;;;;12.13;3.10;;;;;;;3.20;82.68;101784.63;5041021;28;20021;-50
2022/02/11 05:45:10;;;;;;;7.22;1.95;;;;;;;3.22;83.06;101793.22;5042800;28;20611;-49
2022/02/11 05:47:35;;;;;;;6.68;2.00;;;;;;;3.24;82.82;101791.25;5041236;28;20167;-49
2022/02/11 05:50:04;;;;;;;3.72;1.67;;;;;;;3.26;83.13;101791.88;5038897;28;20119;-49
2022/02/11 05:52:30;;;;;;;5.35;2.00;;;;;;;3.30;83.06;101793.19;5040802;28;20061;-48
2022/02/11 05:54:55;;;;;;;9.65;2.30;;;;;;;3.32;82.73;101793.84;5037412;28;20033;-49
2022/02/11 05:57:21;;;;;;;4.50;2.08;;;;;;;3.33;82.87;101787.53;5038203;28;20029;-49
2022/02/11 05:59:47;;;;;;;7.68;2.38;;;;;;;3.32;82.89;101788.53;5043007;28;20430;-48
2022/02/11 06:02:12;;;;;;;7.85;2.38;;;;;;;3.33;83.09;101782.22;5042942;28;20371;-49
2022/02/11 06:04:37;;;;;;;6.05;2.30;;;;;;;3.34;82.77;101786.53;5037778;28;20115;-49
2022/02/11 06:07:03;;;;;;;9.40;2.22;;;;;;;3.32;82.92;101787.72;5072147;22;20457;-47
2022/02/11 06:09:29;;;;;;;7.53;2.42;;;;;;;3.34;82.98;101789.19;5041755;28;20083;-47
2022/02/11 06:11:54;;;;;;;9.30;2.25;;;;;;;3.32;83.08;101796.47;5063486;28;20112;-49
2022/02/11 06:14:20;;;;;;;6.80;2.05;;;;;;;3.32;82.89;101796.47;5063497;28;20397;-47
2022/02/11 06:16:45;;;;;;;11.55;3.15;;;;;;;3.32;83.11;101796.47;5054828;28;20197;-47
2022/02/11 06:19:11;;;;;;;6.88;2.78;;;;;;;3.35;82.98;101805.91;5048156;28;20068;-47
2022/02/11 06:21:36;;;;;;;10.10;3.63;;;;;;;3.37;83.05;101803.91;5049236;28;20232;-48
2022/02/11 06:24:02;;;;;;;5.47;2.58;;;;;;;3.40;82.85;101813.31;5043081;28;20013;-46
2022/02/11 06:26:27;;;;;;;8.45;3.13;;;;;;;3.42;82.88;101800.75;5051052;28;20451;-46
2022/02/11 06:28:55;;;;;;;6.80;2.80;;;;;;;3.45;82.83;101805.69;5048794;28;20412;-49
2022/02/11 06:31:21;;;;;;;4.93;2.53;;;;;;;3.42;82.69;101804.22;5046348;28;20036;-47
2022/02/11 06:33:47;;;;;;;10.00;3.70;;;;;;;3.41;82.78;101804.38;5047198;28;20690;-47
2022/02/11 06:36:13;;;;;;;10.43;3.30;;;;;;;3.41;82.77;101812.31;5048308;28;20066;-48
2022/02/11 06:38:39;;;;;;;10.00;4.07;;;;;;;3.42;82.99;101811.34;5047466;28;20021;-46
2022/02/11 06:41:04;;;;;;;8.82;3.40;;;;;;;3.41;82.83;101804.38;5049189;28;20386;-48
2022/02/11 06:43:31;;;;;;;6.95;2.90;;;;;;;3.41;82.94;101809.66;5050878;28;20451;-47
2022/02/11 06:45:57;;;;;;;9.95;4.13;;;;;;;3.40;82.74;101813.31;5048289;28;20053;-46
2022/02/11 06:48:24;;;;;;;5.60;2.80;;;;;;;3.39;83.04;101822.25;5054474;28;20500;-46
2022/02/11 06:50:51;;;;;;;6.82;2.80;;;;;;;3.39;82.81;101819.63;5054373;28;20027;-47
2022/02/11 06:53:17;;;;;;;5.82;2.67;;;;;;;3.39;82.90;101823.09;5053488;28;20333;-48
2022/02/11 06:55:42;;;;;;;7.90;3.25;;;;;;;3.38;82.73;101823.25;5051509;28;20673;-47
2022/02/11 06:58:08;;;;;;;9.32;3.13;;;;;;;3.37;82.77;101825.09;5049265;28;20299;-47
2022/02/11 07:00:34;;;;;;;5.88;2.70;;;;;;;3.39;82.78;101830.22;5052832;28;20123;-48
2022/02/11 07:03:00;;;;;;;8.75;3.90;;;;;;;3.42;82.86;101835.19;5054112;28;20041;-47
2022/02/11 07:05:27;;;;;;;5.25;2.88;;;;;;;3.44;82.57;101834.00;5051646;28;21549;-47
2022/02/11 07:07:54;;;;;;;8.98;3.08;;;;;;;3.41;82.81;101841.44;5048105;28;20453;-47
2022/02/11 07:10:20;;;;;;;7.43;3.10;;;;;;;3.41;82.58;101846.75;5051785;28;20032;-47
2022/02/11 07:12:45;;;;;;;6.82;3.30;;;;;;;3.41;82.63;101844.97;5053918;28;20032;-48
2022/02/11 07:15:11;;;;;;;12.95;3.20;;;;;;;3.43;82.93;101847.44;5053765;28;20029;-47
2022/02/11 07:17:37;;;;;;;7.70;3.42;;;;;;;3.40;83.28;101839.81;5047001;28;20043;-46
2022/02/11 07:20:05;;;;;;;12.20;3.97;;;;;;;3.41;83.23;101842.31;5050374;28;20027;-47
2022/02/11 07:22:34;;;;;;;11.15;3.80;;;;;;;3.45;82.91;101858.69;5051814;28;20028;-47
2022/02/11 07:25:04;;;;;;;11.23;3.40;;;;;;;3.46;82.86;101861.16;5049263;28;20115;-47
2022/02/11 07:27:29;;;;;;;9.35;3.90;;;;;;;3.49;83.27;101860.78;5049556;28;20036;-47
2022/02/11 07:29:55;;;;;;;10.75;3.42;;;;;;;3.45;83.18;101871.94;5045576;28;21016;-48
2022/02/11 07:32:20;;;;;;;13.80;5.75;;;;;;;3.37;84.08;101875.41;5126939;22;20527;-47
2022/02/11 07:34:46;;;;;;;10.55;3.72;;;;;;;3.41;83.62;101884.69;5064378;28;20035;-47
2022/02/11 07:37:11;;;;;;;7.90;3.47;;;;;;;3.43;83.52;101881.88;5036967;28;20025;-46
2022/02/11 07:39:37;;;;;;;10.82;4.10;;;;;;;3.45;83.98;101886.00;5032647;28;20032;-47
2022/02/11 07:42:03;;;;;;;8.75;4.80;;;;;;;3.44;84.14;101894.94;5033463;28;20239;-45
2022/02/11 07:44:29;;;;;;;7.78;4.72;;;;;;;3.38;84.64;101892.97;5036955;28;20098;-46
2022/02/11 07:46:54;;;;;;;12.43;4.50;;;;;;;3.38;84.79;101895.63;5039241;28;20029;-46
2022/02/11 07:49:20;;;;;;;12.73;4.45;;;;;;;3.40;84.83;101898.91;5034214;28;20506;-46
2022/02/11 07:51:45;;;;;;;15.75;4.82;;;;;;;3.44;84.91;101904.72;5032755;28;20074;-47
2022/02/11 07:54:11;;;;;;;11.98;4.53;;;;;;;3.44;85.03;101902.06;5034050;28;20232;-46
2022/02/11 07:56:36;;;;;;;11.15;4.75;;;;;;;3.46;84.82;101900.06;5038900;28;20043;-46
2022/02/11 07:59:02;;;;;;;10.80;4.30;;;;;;;3.45;84.95;101903.72;5038744;28;20028;-49
2022/02/11 08:01:27;;;;;;;11.75;4.13;;;;;;;3.43;84.67;101903.06;5037261;28;20024;-47
2022/02/11 08:03:53;;;;;;;13.10;4.57;;;;;;;3.34;85.20;101894.31;5036883;28;20486;-46
2022/02/11 08:06:18;;;;;;;11.27;4.57;;;;;;;3.41;84.91;101891.78;5032978;28;20021;-47
2022/02/11 08:08:44;;;;;;;12.82;5.05;;;;;;;3.37;85.12;101895.78;5037450;28;20028;-49
2022/02/11 08:11:10;;;;;;;11.80;4.35;;;;;;;3.34;85.40;101903.09;5038294;28;20465;-47
2022/02/11 08:13:36;;;;;;;15.90;4.93;;;;;;;3.34;85.24;101897.78;5034526;28;20036;-46
2022/02/11 08:16:04;;;;;;;8.70;4.47;;;;;;;3.34;85.37;101903.09;5038045;28;20039;-47
2022/02/11 08:18:29;;;;;;;13.48;4.90;;;;;;;3.36;85.56;101902.09;5033505;28;20133;-48
2022/02/11 08:20:55;;;;;;;8.48;4.50;;;;;;;3.42;85.53;101906.72;5037461;28;20104;-46
2022/02/11 08:23:20;;;;;;;13.10;6.10;;;;;;;3.46;85.36;101915.97;5034270;28;20067;-46
2022/02/11 08:25:46;;;;;;;11.65;4.90;;;;;;;3.51;85.19;101926.88;5035573;28;20024;-47
2022/02/11 08:28:11;;;;;;;13.65;5.43;;;;;;;3.52;85.20;101933.81;5035301;28;20037;-47
2022/02/11 08:30:38;;;;;;;11.95;4.55;;;;;;;3.55;85.10;101930.81;5035642;28;20021;-48
2022/02/11 08:33:04;;;;;;;7.38;3.95;;;;;;;3.59;85.28;101934.75;5035978;28;20509;-47
2022/02/11 08:35:30;;;;;;;13.93;4.95;;;;;;;3.62;84.96;101929.97;5033838;28;20295;-46
2022/02/11 08:37:55;;;;;;;10.02;4.40;;;;;;;3.63;84.78;101933.44;5034032;28;20172;-48
2022/02/11 08:40:21;;;;;;;12.18;4.50;;;;;;;3.67;84.61;101932.09;5034019;28;20025;-46
2022/02/11 08:42:48;;;;;;;11.75;4.47;;;;;;;3.69;84.49;101922.13;5033355;28;20052;-47
2022/02/11 08:45:14;;;;;;;12.93;5.78;;;;;;;3.69;84.63;101934.56;5036689;28;20383;-47
2022/02/11 08:47:40;;;;;;;12.48;5.15;;;;;;;3.74;84.36;101937.50;5033122;28;20032;-48
2022/02/11 08:50:06;;;;;;;11.23;4.55;;;;;;;3.82;84.33;101942.78;5027340;28;20108;-46
2022/02/11 08:52:32;;;;;;;13.10;4.68;;;;;;;3.96;84.38;101936.75;5032509;28;20082;-48
2022/02/11 08:54:58;;;;;;;15.25;4.97;;;;;;;4.15;84.35;101938.09;5033281;28;20359;-46
2022/02/11 08:58:07;;;;;;;10.68;3.88;;;;;;;4.19;84.11;101945.53;5032509;28;20413;-47
2022/02/11 09:00:32;;;;;;;13.63;4.97;;;;;;;4.28;83.62;101946.28;5038941;28;20025;-48
2022/02/11 09:02:58;;;;;;;9.18;4.30;;;;;;;4.30;83.35;101948.75;5032975;28;20368;-48
2022/02/11 09:05:29;;;;;;;6.97;3.88;;;;;;;4.35;83.39;101947.25;5031167;28;20047;-47
2022/02/11 09:08:00;;;;;;;8.45;3.83;;;;;;;4.45;83.56;101947.81;5032875;28;20164;-48
2022/02/11 09:10:27;;;;;;;10.00;3.92;;;;;;;4.46;82.81;101957.41;5043653;28;20078;-47
2022/02/11 09:12:57;;;;;;;8.35;3.65;;;;;;;4.49;83.01;101965.03;5032810;28;20041;-47
2022/02/11 09:15:23;;;;;;;10.88;4.05;;;;;;;4.52;82.79;101959.38;5043392;28;20509;-48
2022/02/11 09:17:50;;;;;;;16.33;4.10;;;;;;;4.50;82.75;101961.38;5042959;28;20033;-46
2022/02/11 09:20:19;;;;;;;12.70;4.85;;;;;;;4.47;82.37;101967.03;5041911;28;20207;-47
2022/02/11 09:22:44;;;;;;;13.00;4.43;;;;;;;4.50;82.81;101960.56;5040442;28;20031;-47
2022/02/11 09:25:11;;;;;;;12.38;5.00;;;;;;;4.49;82.65;101964.22;5037992;28;20404;-48
2022/02/11 09:27:43;;;;;;;12.68;5.05;;;;;;;4.58;82.55;101964.97;5040102;28;20021;-46
2022/02/11 09:30:15;;;;;;;15.80;6.63;;;;;;;4.64;82.45;101957.09;5034962;28;20175;-48
2022/02/11 09:32:41;;;;;;;23.48;6.95;;;;;;;4.71;82.35;101951.91;5034729;28;20025;-48
2022/02/11 09:35:09;;;;;;;19.00;6.65;;;;;;;4.79;82.01;101955.31;5033824;28;20039;-48
2022/02/11 09:37:36;;;;;;;18.27;6.05;;;;;;;4.85;81.78;101953.78;5033805;28;20478;-47
2022/02/11 09:40:06;;;;;;;17.30;5.78;;;;;;;4.89;81.64;101955.06;5030126;28;20076;-48
2022/02/11 09:42:31;;;;;;;15.85;4.97;;;;;;;4.94;81.88;101958.00;5030412;28;20021;-50
2022/02/11 09:44:58;;;;;;;17.63;5.47;;;;;;;4.99;81.74;101968.06;5032765;28;20526;-48
2022/02/11 09:47:24;;;;;;;10.45;4.72;;;;;;;5.08;81.95;101962.50;5031113;28;20572;-48
2022/02/11 09:49:50;;;;;;;13.88;4.30;;;;;;;5.20;81.23;101962.03;5032375;28;20172;-48
2022/02/11 09:52:17;;;;;;;9.60;4.40;;;;;;;5.27;80.48;101963.78;5040578;28;20036;-49
2022/02/11 09:54:43;;;;;;;14.95;4.30;;;;;;;5.37;80.30;101968.81;5032909;28;20128;-47
2022/02/11 09:57:10;;;;;;;10.43;4.05;;;;;;;5.45;80.09;101976.72;5030613;28;20092;-47
2022/02/11 09:59:37;;;;;;;10.13;4.07;;;;;;;5.61;80.16;101989.81;5030457;28;20300;-49
2022/02/11 10:02:03;;;;;;;11.15;4.40;;;;;;;5.75;79.92;101981.00;5031026;28;20020;-50
2022/02/11 10:04:28;;;;;;;13.52;4.60;;;;;;;5.83;78.99;101990.69;5032024;28;20090;-47
2022/02/11 10:06:57;;;;;;;11.23;4.72;;;;;;;5.88;78.67;101992.78;5029958;28;20045;-47
2022/02/11 10:09:23;;;;;;;11.73;3.90;;;;;;;6.04;78.42;101993.41;5030892;28;20100;-49
2022/02/11 10:11:50;;;;;;;11.68;3.60;;;;;;;6.11;77.34;101996.16;5031179;28;20149;-50
2022/02/11 10:14:23;;;;;;;10.23;3.80;;;;;;;6.15;77.45;102002.75;5031379;28;20083;-49
2022/02/11 10:17:16;;;;;;;8.63;3.58;;;;;;;6.15;77.30;102000.09;5031957;28;20032;-47
2022/02/11 10:19:43;;;;;;;11.65;4.47;;;;;;;6.22;76.88;102002.81;5028845;28;20095;-47
2022/02/11 10:22:21;;;;;;;14.57;4.97;;;;;;;6.16;76.35;102008.91;5031156;28;20136;-47
2022/02/11 10:24:49;;;;;;;8.82;3.78;;;;;;;6.21;77.44;102004.66;5031989;28;20021;-48
2022/02/11 10:27:48;;;;;;;8.77;4.07;;;;;;;6.08;75.37;102012.50;5029687;28;20112;-48
2022/02/11 10:30:14;;;;;;;10.70;4.25;;;;;;;6.26;76.70;102012.91;5030627;28;20033;-49
2022/02/11 10:32:43;;;;;;;11.20;4.22;;;;;;;6.27;76.17;102025.19;5028862;28;20029;-49
2022/02/11 10:35:11;;;;;;;7.80;3.75;;;;;;;6.28;75.83;102018.03;5036304;28;20033;-49
2022/02/11 10:38:23;;;;;;;6.93;4.03;;;;;;;6.15;74.46;102017.91;5033213;28;20029;-47
2022/02/11 10:40:48;;;;;;;11.02;4.28;;;;;;;6.41;76.01;102025.34;5023253;28;20069;-47
2022/02/11 10:43:33;;;;;;;9.23;3.97;;;;;;;6.42;74.23;102032.31;5030752;28;20125;-48
2022/02/11 10:46:03;;;;;;;10.00;4.05;;;;;;;6.58;74.93;102034.72;5031821;28;20605;-48
2022/02/11 10:48:34;;;;;;;15.65;4.28;;;;;;;6.66;74.74;102024.78;5032991;28;20030;-50
2022/02/11 10:51:04;;;;;;;8.48;4.00;;;;;;;6.75;74.35;102033.44;5031747;28;20036;-48
2022/02/11 10:53:34;;;;;;;9.70;4.15;;;;;;;6.86;73.37;102034.78;5033530;28;20103;-49
2022/02/11 10:56:03;;;;;;;13.70;5.22;;;;;;;7.02;73.24;102023.03;5030395;28;20479;-50
2022/02/11 10:58:32;;;;;;;9.25;3.92;;;;;;;6.98;71.87;102023.41;5033095;28;20533;-50
2022/02/11 11:01:01;;;;;;;10.75;3.83;;;;;;;6.83;71.53;102030.66;5031376;28;20034;-47
2022/02/11 11:03:33;;;;;;;14.55;3.97;;;;;;;6.67;70.87;102022.94;5029997;28;20155;-47
2022/02/11 11:06:03;;;;;;;7.25;3.35;;;;;;;6.72;72.70;102025.84;5030378;28;20337;-49
2022/02/11 11:08:33;;;;;;;9.05;3.15;;;;;;;6.65;71.68;102017.00;5030256;28;20064;-48
2022/02/11 11:11:04;;;;;;;11.65;4.32;;;;;;;6.57;71.24;102017.94;5036669;28;20033;-50
2022/02/11 11:13:31;;;;;;;6.80;3.70;;;;;;;6.50;71.66;102025.03;5039374;28;20127;-47
2022/02/11 11:15:59;;;;;;;10.52;3.85;;;;;;;6.38;70.77;102031.03;5036669;28;20551;-47
2022/02/11 11:18:27;;;;;;;12.00;4.10;;;;;;;6.42;71.35;102024.31;5033632;28;20032;-48
2022/02/11 11:20:54;;;;;;;9.55;3.50;;;;;;;6.60;71.88;102016.72;5035776;28;20026;-47
2022/02/11 11:23:23;;;;;;;10.00;3.22;;;;;;;6.80;69.79;102036.34;5034615;28;20115;-47
2022/02/11 11:25:50;;;;;;;8.73;3.72;;;;;;;7.06;70.44;102035.78;5033209;28;20033;-48
2022/02/11 11:28:45;;;;;;;20.55;5.38;;;;;;;7.13;68.76;102041.13;5039324;28;20029;-48
2022/02/11 11:31:28;;;;;;;10.73;3.45;;;;;;;7.08;67.77;102035.56;5039137;28;20032;-47
2022/02/11 11:34:15;;;;;;;9.48;3.28;;;;;;;7.19;69.05;102040.38;5037546;28;20433;-51
2022/02/11 11:36:53;;;;;;;8.90;3.15;;;;;;;7.16;65.66;102038.09;5040418;28;20432;-48
2022/02/11 11:39:20;;;;;;;10.73;3.67;;;;;;;7.19;68.57;102038.53;5034400;28;20036;-49
2022/02/11 11:42:06;;;;;;;8.27;3.50;;;;;;;7.12;67.38;102036.81;5037668;28;20030;-52
2022/02/11 11:44:53;;;;;;;8.18;3.55;;;;;;;7.55;68.31;102046.38;5035732;28;20032;-49
2022/02/11 11:47:27;;;;;;;8.07;3.60;;;;;;;8.05;66.13;102048.84;5036693;28;20040;-51
2022/02/11 11:49:53;;;;;;;12.53;4.80;;;;;;;8.51;65.21;102045.53;5035010;28;20483;-52
2022/02/11 11:52:20;;;;;;;10.00;4.25;;;;;;;8.89;65.14;102043.94;5036751;28;20365;-52
2022/02/11 11:54:46;;;;;;;10.73;3.63;;;;;;;9.13;63.97;102039.81;5039701;28;20124;-52
2022/02/11 11:57:19;;;;;;;11.60;4.07;;;;;;;9.30;64.24;102041.03;5030800;28;20033;-49
2022/02/11 11:59:55;;;;;;;9.52;4.22;;;;;;;9.50;62.41;102046.34;5036017;28;20078;-52
2022/02/11 12:02:27;;;;;;;9.45;3.88;;;;;;;9.69;63.71;102050.00;5040090;28;20143;-51
2022/02/11 12:04:54;;;;;;;10.07;3.47;;;;;;;9.87;64.04;102052.81;5040184;28;20033;-50
2022/02/11 12:07:29;;;;;;;10.80;3.45;;;;;;;9.90;63.31;102056.94;5037423;28;20082;-53
2022/02/11 12:09:57;;;;;;;7.35;3.53;;;;;;;9.46;62.84;102055.00;5040562;28;20024;-49
2022/02/11 12:12:28;;;;;;;9.90;3.47;;;;;;;8.88;62.46;102057.50;5040073;28;20416;-51
2022/02/11 12:14:58;;;;;;;12.05;3.22;;;;;;;8.46;64.09;102068.34;5041716;28;20029;-52
2022/02/11 12:17:25;;;;;;;7.07;3.28;;;;;;;8.05;65.03;102078.22;5050972;28;20511;-53
2022/02/11 12:19:52;;;;;;;7.47;3.83;;;;;;;7.79;65.84;102076.25;5035850;28;20043;-49
2022/02/11 12:22:20;;;;;;;8.90;3.65;;;;;;;7.63;65.67;102065.88;5038480;28;20104;-49
2022/02/11 12:27:37;;;;;;;16.38;3.72;;;;;;;7.31;66.23;102069.97;5042181;28;20155;-51
2022/02/11 12:30:07;;;;;;;9.82;3.83;;;;;;;7.34;66.25;102075.75;5040930;28;20136;-51
2022/02/11 12:32:40;;;;;;;14.45;3.58;;;;;;;7.76;65.14;102084.66;5039644;28;20365;-49
2022/02/11 12:35:08;;;;;;;7.88;3.65;;;;;;;8.41;63.76;102091.31;5040892;28;20025;-51
2022/02/11 12:37:34;;;;;;;11.65;3.80;;;;;;;9.00;63.00;102093.31;5035218;28;20053;-48
2022/02/11 12:40:02;;;;;;;7.88;3.40;;;;;;;9.43;61.13;102082.16;5038189;28;20098;-52
2022/02/11 12:42:28;;;;;;;9.95;3.60;;;;;;;9.81;60.84;102090.31;5037033;28;20039;-52
2022/02/11 12:44:53;;;;;;;10.02;3.65;;;;;;;10.11;60.09;102090.66;5038436;28;20251;-49
2022/02/11 12:47:19;;;;;;;8.35;3.25;;;;;;;10.46;56.77;102094.63;5035429;28;20029;-49
2022/02/11 12:49:48;;;;;;;5.78;3.10;;;;;;;10.74;57.86;102098.78;5036577;28;20046;-51
2022/02/11 12:52:25;;;;;;;10.30;3.17;;;;;;;10.87;55.23;102106.75;5035228;28;20536;-48
2022/02/11 12:55:01;;;;;;;7.80;2.65;;;;;;;10.64;57.27;102109.19;5037552;28;20120;-49
2022/02/11 12:57:29;;;;;;;6.30;2.88;;;;;;;10.09;58.95;102120.31;5035356;28;20055;-49
2022/02/11 12:59:57;;;;;;;10.30;3.72;;;;;;;9.70;60.44;102118.56;5038090;28;20456;-48
2022/02/11 13:02:29;;;;;;;13.00;2.97;;;;;;;9.06;58.94;102121.88;5032837;28;20037;-49
2022/02/11 13:05:01;;;;;;;9.50;3.45;;;;;;;8.68;61.18;102126.97;5035978;28;20025;-52
2022/02/11 13:07:27;;;;;;;7.80;3.17;;;;;;;8.53;62.19;102139.66;5037471;28;20079;-50
2022/02/11 13:09:53;;;;;;;11.18;3.50;;;;;;;8.42;63.06;102136.50;5030335;28;20549;-49
2022/02/11 13:12:18;;;;;;;12.77;3.75;;;;;;;8.53;62.60;102143.16;5036868;28;20032;-48
2022/02/11 13:14:44;;;;;;;7.68;3.20;;;;;;;8.82;60.41;102149.19;5030360;28;20033;-50
2022/02/11 13:17:09;;;;;;;6.47;3.85;;;;;;;8.67;61.33;102142.16;5041314;28;20303;-49
2022/02/11 13:19:35;;;;;;;9.98;3.65;;;;;;;8.49;62.27;102149.91;5034346;28;20867;-49
2022/02/11 13:22:01;;;;;;;10.70;3.20;;;;;;;8.17;61.69;102152.19;5034698;28;20364;-52
2022/02/11 13:24:26;;;;;;;11.23;3.67;;;;;;;7.93;62.39;102152.69;5032039;28;20475;-48
2022/02/11 13:26:52;;;;;;;10.30;2.83;;;;;;;7.78;62.86;102151.97;5035685;28;20513;-48
2022/02/11 13:29:18;;;;;;;5.60;2.60;;;;;;;7.53;62.83;102155.06;5034863;28;20321;-48
2022/02/11 13:31:50;;;;;;;11.30;3.67;;;;;;;7.39;62.75;102168.50;5032725;28;20029;-49
2022/02/11 13:34:16;;;;;;;7.03;3.20;;;;;;;7.36;63.68;102169.72;5034291;28;20087;-48
2022/02/11 13:36:48;;;;;;;12.30;3.92;;;;;;;7.30;63.35;102175.78;5033833;28;20084;-48
2022/02/11 13:39:32;;;;;;;10.18;3.08;;;;;;;7.33;63.67;102182.59;5032986;28;20020;-48
2022/02/11 13:41:58;;;;;;;9.30;3.55;;;;;;;7.44;64.15;102177.56;5052013;28;20124;-50
2022/02/11 13:44:23;;;;;;;8.55;3.35;;;;;;;7.48;64.36;102178.00;5029516;28;20037;-50
2022/02/11 13:46:52;;;;;;;17.77;3.50;;;;;;;7.47;64.28;102182.50;5043554;28;20075;-50
2022/02/11 13:49:18;;;;;;;8.50;3.05;;;;;;;7.51;64.78;102188.28;5039779;28;20040;-51
2022/02/11 13:53:01;;;;;;;8.48;3.53;;;;;;;7.51;64.23;102189.09;5030943;28;20087;-48
2022/02/11 13:54:29;;;;;;;9.18;3.47;;;;;;;7.54;64.42;102183.41;5036541;28;20033;-47
2022/02/11 13:56:55;;;;;;;10.55;4.00;;;;;;;7.56;64.36;102181.38;5030129;28;20048;-49
2022/02/11 13:59:39;;;;;;;9.32;3.42;;;;;;;7.49;64.42;102190.31;5036536;28;20033;-48
2022/02/11 14:02:08;;;;;;;9.07;3.42;;;;;;;7.54;64.60;102194.09;5035209;28;20400;-51
2022/02/11 14:04:34;;;;;;;7.40;2.75;;;;;;;7.39;64.02;102195.16;5040876;28;20043;-50
2022/02/11 14:07:01;;;;;;;9.82;3.15;;;;;;;7.37;64.38;102208.69;5037913;28;20032;-48
2022/02/11 14:09:37;;;;;;;8.32;2.92;;;;;;;7.34;64.31;102202.91;5036078;28;20033;-47
2022/02/11 14:12:25;;;;;;;10.68;2.85;;;;;;;7.33;63.77;102206.59;5036640;28;20199;-48
2022/02/11 14:14:53;;;;;;;9.05;2.53;;;;;;;7.29;63.22;102206.16;5039271;28;20084;-49
2022/02/11 14:17:18;;;;;;;10.25;2.70;;;;;;;7.28;63.48;102205.31;5031748;28;20032;-47
2022/02/11 14:19:44;;;;;;;8.60;2.90;;;;;;;7.13;62.65;102212.53;5038028;28;20029;-49
2022/02/11 14:22:11;;;;;;;8.10;2.90;;;;;;;7.14;62.34;102208.03;5040446;28;20094;-49
2022/02/11 14:24:37;;;;;;;6.47;2.95;;;;;;;7.03;62.03;102219.22;5037383;28;20452;-47
2022/02/11 14:27:03;;;;;;;7.82;2.08;;;;;;;7.07;63.31;102221.31;5046437;28;20028;-47
2022/02/11 14:29:29;;;;;;;15.93;3.45;;;;;;;7.03;63.29;102225.38;5033448;28;20474;-48
2022/02/11 14:31:55;;;;;;;9.63;2.70;;;;;;;6.79;62.42;102229.19;5040519;28;20028;-48
2022/02/11 14:34:41;;;;;;;10.05;2.60;;;;;;;6.70;63.01;102232.97;5036449;28;20487;-48
2022/02/11 14:37:07;;;;;;;6.05;2.67;;;;;;;6.72;63.99;102230.13;5037344;28;20649;-49
2022/02/11 14:39:32;;;;;;;7.43;3.22;;;;;;;6.62;63.43;102235.72;5036577;28;20100;-47
2022/02/11 14:42:01;;;;;;;11.20;3.35;;;;;;;6.54;63.74;102243.81;5037112;28;20475;-47
2022/02/11 14:44:29;;;;;;;8.98;2.88;;;;;;;6.55;64.43;102240.16;5039303;28;20707;-47
2022/02/11 14:46:57;;;;;;;8.40;2.83;;;;;;;6.57;64.66;102238.94;5033715;28;20139;-48
2022/02/11 14:49:23;;;;;;;9.20;2.63;;;;;;;6.60;64.78;102243.91;5038717;28;20086;-47
2022/02/11 14:51:55;;;;;;;5.80;2.80;;;;;;;6.51;63.79;102254.84;5033698;28;20022;-49
2022/02/11 14:54:22;;;;;;;8.73;3.20;;;;;;;6.53;64.55;102258.97;5034603;28;20033;-49
2022/02/11 14:56:48;;;;;;;8.82;3.30;;;;;;;6.59;65.17;102263.56;5036229;28;20482;-50
2022/02/11 14:59:14;;;;;;;8.35;2.88;;;;;;;6.64;64.56;102261.19;5035737;28;20025;-48
2022/02/11 15:01:45;;;;;;;7.13;2.75;;;;;;;6.63;64.86;102272.81;5042579;28;20394;-50
2022/02/11 15:04:11;;;;;;;6.90;3.03;;;;;;;6.68;64.96;102271.47;5040502;28;20029;-48
2022/02/11 15:06:37;;;;;;;13.35;3.45;;;;;;;6.67;65.12;102281.28;5034840;28;20043;-47
2022/02/11 15:09:04;;;;;;;9.85;3.38;;;;;;;6.55;65.19;102283.59;5053435;28;20286;-49
2022/02/11 15:11:32;;;;;;;14.20;3.83;;;;;;;6.50;65.60;102303.78;5035285;28;20061;-47
2022/02/11 15:13:57;;;;;;;9.00;3.25;;;;;;;6.22;65.49;102293.75;5048986;28;20033;-48
2022/02/11 15:16:23;;;;;;;8.68;2.80;;;;;;;6.31;65.98;102305.97;5042088;28;20032;-47
2022/02/11 15:18:49;;;;;;;8.55;3.55;;;;;;;6.30;66.12;102309.66;5048402;28;20033;-48
2022/02/11 15:21:15;;;;;;;11.63;4.18;;;;;;;6.27;66.51;102325.97;5043354;28;20025;-47
2022/02/11 15:23:42;;;;;;;10.40;3.97;;;;;;;6.23;66.49;102330.00;5044728;28;20028;-49
2022/02/11 15:26:10;;;;;;;6.63;3.60;;;;;;;6.08;66.58;102337.13;5042323;28;20155;-49
2022/02/11 15:28:40;;;;;;;7.45;3.58;;;;;;;6.00;66.70;102337.19;5037423;28;20426;-47
2022/02/11 15:31:12;;;;;;;14.35;4.70;;;;;;;6.06;67.46;102341.78;5037965;28;20029;-47